Time;durP1;ratioP1;P1;durP2;ratioP2;P2;SDS_P1;SDS_P2;PMS_P1;PMS_P2;Temp;Humidity;BMP_temperature;BMP_pressure;BME280_temperature;BME280_humidity;BME280_pressure;Samples;Min_cycle;Max_cycle;Signal;HPM_P1;HPM_P2
2021/08/17 00:01:28;;;;;;;14.30;13.40;;;24.50;93.30;;;;;;2610403;54;20391;-56
2021/08/17 00:03:57;;;;;;;13.83;12.93;;;24.50;93.20;;;;;;2609069;54;20490;-56
2021/08/17 00:06:26;;;;;;;13.67;12.77;;;24.50;93.30;;;;;;2608782;54;20896;-57
2021/08/17 00:08:55;;;;;;;13.83;12.93;;;24.50;93.30;;;;;;2610593;54;20541;-56
2021/08/17 00:11:27;;;;;;;12.70;11.97;;;24.50;93.40;;;;;;2609614;54;20379;-56
2021/08/17 00:13:57;;;;;;;15.10;14.03;;;24.50;93.20;;;;;;2609762;54;20521;-55
2021/08/17 00:16:26;;;;;;;14.73;13.63;;;24.50;93.20;;;;;;2609082;54;20926;-56
2021/08/17 00:18:55;;;;;;;12.97;12.20;;;24.50;93.60;;;;;;2609171;54;20407;-56
2021/08/17 00:21:24;;;;;;;13.60;12.80;;;24.50;93.50;;;;;;2609856;39;21046;-56
2021/08/17 00:23:54;;;;;;;13.10;12.37;;;24.50;93.50;;;;;;2610079;39;20784;-55
2021/08/17 00:26:23;;;;;;;13.00;12.30;;;24.50;93.50;;;;;;2609252;54;20399;-56
2021/08/17 00:28:54;;;;;;;13.17;12.37;;;24.50;93.60;;;;;;2608692;54;20558;-53
2021/08/17 00:31:23;;;;;;;13.00;12.20;;;24.60;93.70;;;;;;2609014;54;20435;-54
2021/08/17 00:33:53;;;;;;;12.47;11.67;;;24.60;93.60;;;;;;2608520;54;20430;-56
2021/08/17 00:36:22;;;;;;;12.80;11.90;;;24.60;93.60;;;;;;2607450;54;20387;-55
2021/08/17 00:38:52;;;;;;;11.53;10.93;;;24.60;93.60;;;;;;2607132;54;20510;-55
2021/08/17 00:41:21;;;;;;;11.30;10.70;;;24.60;93.50;;;;;;2608078;47;20383;-56
2021/08/17 00:43:50;;;;;;;11.60;10.90;;;24.50;93.30;;;;;;2609186;54;20437;-56
2021/08/17 00:46:24;;;;;;;11.53;10.93;;;24.50;93.40;;;;;;2609046;54;20402;-55
2021/08/17 00:48:53;;;;;;;11.47;10.87;;;24.60;93.40;;;;;;2608607;54;20403;-53
2021/08/17 00:51:22;;;;;;;11.77;11.10;;;24.60;93.40;;;;;;2606993;47;20407;-56
2021/08/17 00:53:54;;;;;;;11.67;11.07;;;24.60;93.40;;;;;;2609008;54;20386;-56
2021/08/17 00:56:23;;;;;;;12.37;11.67;;;24.50;93.30;;;;;;2609099;39;20756;-56
2021/08/17 00:58:52;;;;;;;11.93;11.30;;;24.50;93.10;;;;;;2609541;39;20776;-55
2021/08/17 01:01:24;;;;;;;12.83;12.13;;;24.50;93.10;;;;;;2608291;54;20449;-56
2021/08/17 01:03:54;;;;;;;11.43;10.83;;;24.50;93.20;;;;;;2608599;54;20474;-55
2021/08/17 01:06:23;;;;;;;11.40;10.80;;;24.50;93.10;;;;;;2607607;54;20441;-57
2021/08/17 01:08:53;;;;;;;11.63;11.03;;;24.50;93.10;;;;;;2609359;54;20402;-53
2021/08/17 01:11:22;;;;;;;11.47;10.77;;;24.50;93.10;;;;;;2609874;39;21026;-56
2021/08/17 01:13:52;;;;;;;11.43;10.83;;;24.50;93.10;;;;;;2609950;47;20464;-56
2021/08/17 01:16:24;;;;;;;12.53;11.57;;;24.50;93.00;;;;;;2609828;54;20417;-56
2021/08/17 01:18:53;;;;;;;11.07;10.57;;;24.40;92.90;;;;;;2608976;54;20445;-57
2021/08/17 01:21:22;;;;;;;11.37;10.67;;;24.50;93.10;;;;;;2609450;39;20755;-56
2021/08/17 01:23:52;;;;;;;10.97;10.43;;;24.50;93.10;;;;;;2609544;39;20653;-55
2021/08/17 01:26:23;;;;;;;11.30;10.70;;;24.50;93.10;;;;;;2610022;51;20375;-55
2021/08/17 01:28:53;;;;;;;11.10;10.53;;;24.40;93.00;;;;;;2610521;54;20433;-56
2021/08/17 01:31:22;;;;;;;11.80;11.10;;;24.50;93.00;;;;;;2609523;54;20431;-52
2021/08/17 01:33:51;;;;;;;10.77;10.27;;;24.40;93.00;;;;;;2608403;54;20398;-57
2021/08/17 01:36:20;;;;;;;11.00;10.40;;;24.40;93.00;;;;;;2608337;54;20526;-56
2021/08/17 01:38:51;;;;;;;12.27;11.47;;;24.40;93.00;;;;;;2609461;54;20453;-56
2021/08/17 01:41:23;;;;;;;11.50;10.90;;;24.40;92.90;;;;;;2609761;54;20434;-56
2021/08/17 01:43:52;;;;;;;10.93;10.33;;;24.40;92.90;;;;;;2611023;39;21234;-55
2021/08/17 01:46:21;;;;;;;11.00;10.40;;;24.40;93.00;;;;;;2608845;54;20419;-56
2021/08/17 01:48:50;;;;;;;12.00;11.30;;;24.40;93.00;;;;;;2609435;54;21438;-56
2021/08/17 01:51:19;;;;;;;11.87;11.27;;;24.40;93.00;;;;;;2610352;54;20418;-56
2021/08/17 01:53:49;;;;;;;11.77;11.17;;;24.40;93.00;;;;;;2609805;54;20406;-53
2021/08/17 01:56:18;;;;;;;11.67;11.00;;;24.40;93.00;;;;;;2609467;54;20394;-56
2021/08/17 01:58:50;;;;;;;11.30;10.80;;;24.40;93.00;;;;;;2609812;54;20418;-55
2021/08/17 02:01:20;;;;;;;11.23;10.73;;;24.40;92.90;;;;;;2608868;54;20413;-57
2021/08/17 02:03:50;;;;;;;12.33;11.67;;;24.40;92.90;;;;;;2608706;54;21158;-56
2021/08/17 02:06:20;;;;;;;11.70;11.10;;;24.40;92.80;;;;;;2608760;54;20442;-56
2021/08/17 02:08:49;;;;;;;11.87;11.13;;;24.40;92.80;;;;;;2608320;54;20405;-54
2021/08/17 02:11:18;;;;;;;12.07;11.47;;;24.40;92.90;;;;;;2607612;54;20386;-56
2021/08/17 02:13:50;;;;;;;12.60;11.93;;;24.40;92.90;;;;;;2606738;54;21162;-56
2021/08/17 02:16:19;;;;;;;12.27;11.57;;;24.40;92.80;;;;;;2607806;54;20399;-55
2021/08/17 02:18:48;;;;;;;12.53;11.83;;;24.40;92.70;;;;;;2608175;47;20481;-56
2021/08/17 02:21:17;;;;;;;12.30;11.70;;;24.40;92.70;;;;;;2607047;54;20470;-56
2021/08/17 02:23:46;;;;;;;12.37;11.70;;;24.40;92.80;;;;;;2607931;39;21036;-57
2021/08/17 02:26:16;;;;;;;13.60;12.80;;;24.40;92.80;;;;;;2608570;54;20412;-57
2021/08/17 02:28:45;;;;;;;12.53;11.80;;;24.40;92.90;;;;;;2609903;54;20442;-56
2021/08/17 02:31:17;;;;;;;12.30;11.53;;;24.40;92.90;;;;;;2609695;54;20398;-56
2021/08/17 02:33:46;;;;;;;12.30;11.60;;;24.40;92.80;;;;;;2608909;54;20557;-56
2021/08/17 02:36:15;;;;;;;12.63;11.93;;;24.40;92.80;;;;;;2608362;54;20402;-55
2021/08/17 02:38:45;;;;;;;12.73;12.03;;;24.40;92.60;;;;;;2609339;39;20787;-56
2021/08/17 02:41:14;;;;;;;11.97;11.27;;;24.40;92.60;;;;;;2609437;54;20912;-56
2021/08/17 02:43:43;;;;;;;12.13;11.43;;;24.40;92.60;;;;;;2610186;47;20577;-56
2021/08/17 02:46:12;;;;;;;12.47;11.67;;;24.40;92.60;;;;;;2609496;54;20402;-56
2021/08/17 02:48:44;;;;;;;13.37;12.57;;;24.40;92.90;;;;;;2607560;54;20453;-56
2021/08/17 02:51:15;;;;;;;12.33;11.63;;;24.40;92.60;;;;;;2610101;54;20428;-56
2021/08/17 02:53:44;;;;;;;12.87;12.17;;;24.40;92.50;;;;;;2609241;47;20524;-55
2021/08/17 02:56:13;;;;;;;12.87;12.17;;;24.40;92.50;;;;;;2608836;54;20419;-56
2021/08/17 02:58:44;;;;;;;12.07;11.37;;;24.40;92.50;;;;;;2610178;39;20816;-56
2021/08/17 03:01:13;;;;;;;13.20;12.40;;;24.40;92.40;;;;;;2608367;54;20426;-56
2021/08/17 03:03:45;;;;;;;13.20;12.40;;;24.40;92.30;;;;;;2607301;47;20446;-56
2021/08/17 03:06:15;;;;;;;13.77;12.87;;;24.40;92.30;;;;;;2607556;47;20427;-56
2021/08/17 03:08:45;;;;;;;13.37;12.67;;;24.30;92.20;;;;;;2608790;54;20395;-56
2021/08/17 03:11:14;;;;;;;12.87;12.17;;;24.30;92.30;;;;;;2610391;54;20457;-56
2021/08/17 03:13:43;;;;;;;14.37;13.17;;;24.30;92.10;;;;;;2610519;39;21059;-57
2021/08/17 03:16:12;;;;;;;13.23;12.33;;;24.30;92.20;;;;;;2608734;54;20418;-56
2021/08/17 03:18:41;;;;;;;13.73;12.83;;;24.30;92.20;;;;;;2610081;39;20793;-56
2021/08/17 03:21:13;;;;;;;13.50;12.70;;;24.30;92.20;;;;;;2608988;54;20410;-56
2021/08/17 03:23:43;;;;;;;13.10;12.30;;;24.30;92.20;;;;;;2608802;54;20386;-53
2021/08/17 03:26:12;;;;;;;13.13;12.33;;;24.30;92.20;;;;;;2609285;54;20401;-57
2021/08/17 03:28:42;;;;;;;14.13;13.23;;;24.30;92.20;;;;;;2609544;54;20487;-56
2021/08/17 03:31:11;;;;;;;13.60;12.80;;;24.30;92.20;;;;;;2608090;54;20383;-56
2021/08/17 03:33:40;;;;;;;13.30;12.50;;;24.30;92.30;;;;;;2606250;54;20447;-57
2021/08/17 03:36:09;;;;;;;13.70;12.43;;;24.30;92.30;;;;;;2606270;54;20375;-55
2021/08/17 03:38:42;;;;;;;13.70;12.87;;;24.30;92.20;;;;;;2607662;39;20493;-54
2021/08/17 03:41:11;;;;;;;13.40;12.60;;;24.30;92.10;;;;;;2607391;54;20431;-55
2021/08/17 03:43:40;;;;;;;13.30;12.50;;;24.30;92.20;;;;;;2608003;54;20447;-55
2021/08/17 03:46:09;;;;;;;14.10;13.20;;;24.30;92.20;;;;;;2608028;54;20399;-55
2021/08/17 03:48:38;;;;;;;13.73;13.03;;;24.30;92.20;;;;;;2607622;54;20533;-57
2021/08/17 03:51:07;;;;;;;14.73;13.83;;;24.30;92.50;;;;;;2608352;54;20403;-56
2021/08/17 03:53:40;;;;;;;13.50;12.80;;;24.30;92.30;;;;;;2608585;54;20530;-57
2021/08/17 03:56:09;;;;;;;13.43;12.73;;;24.30;92.20;;;;;;2606819;54;20430;-56
2021/08/17 03:58:39;;;;;;;13.67;12.80;;;24.30;92.10;;;;;;2606722;54;20410;-57
2021/08/17 04:01:08;;;;;;;14.40;13.60;;;24.30;92.10;;;;;;2607058;39;20846;-56
2021/08/17 04:03:37;;;;;;;14.97;14.17;;;24.30;92.00;;;;;;2608300;39;21049;-56
2021/08/17 04:06:06;;;;;;;15.03;14.10;;;24.30;91.90;;;;;;2605848;54;20446;-56
2021/08/17 04:08:37;;;;;;;14.50;13.60;;;24.30;91.80;;;;;;2607141;54;20522;-56
2021/08/17 04:11:09;;;;;;;16.00;15.00;;;24.30;91.90;;;;;;2608174;54;21119;-55
2021/08/17 04:13:40;;;;;;;14.50;13.73;;;24.30;91.80;;;;;;2608491;39;21107;-57
2021/08/17 04:16:09;;;;;;;14.67;13.87;;;24.30;91.90;;;;;;2609439;39;21011;-57
2021/08/17 04:18:38;;;;;;;15.07;14.27;;;24.30;91.80;;;;;;2606281;54;20403;-57
2021/08/17 04:21:07;;;;;;;16.40;15.50;;;24.30;92.10;;;;;;2604053;54;20395;-56
2021/08/17 04:23:36;;;;;;;15.33;14.53;;;24.30;91.70;;;;;;2602570;54;20375;-56
2021/08/17 04:26:06;;;;;;;14.93;14.17;;;24.30;91.70;;;;;;2603389;54;20455;-56
2021/08/17 04:28:37;;;;;;;15.07;14.20;;;24.20;91.60;;;;;;2603996;47;20495;-56
2021/08/17 04:31:06;;;;;;;16.50;15.13;;;24.20;91.60;;;;;;2604147;54;20437;-56
2021/08/17 04:33:35;;;;;;;15.60;14.67;;;24.20;91.60;;;;;;2603165;39;20846;-57
2021/08/17 04:36:05;;;;;;;14.70;13.90;;;24.20;91.60;;;;;;2604184;54;20391;-56
2021/08/17 04:38:34;;;;;;;16.50;15.50;;;24.20;91.70;;;;;;2601491;54;20395;-56
2021/08/17 04:41:05;;;;;;;14.70;13.90;;;24.20;91.70;;;;;;2604819;39;21143;-56
2021/08/17 04:43:36;;;;;;;15.40;14.60;;;24.20;91.60;;;;;;2605687;54;20429;-56
2021/08/17 04:46:06;;;;;;;15.57;14.47;;;24.20;91.60;;;;;;2604566;54;20434;-55
2021/08/17 04:48:35;;;;;;;15.50;14.60;;;24.20;91.70;;;;;;2603252;54;20395;-57
2021/08/17 04:51:04;;;;;;;15.27;14.33;;;24.20;91.70;;;;;;2602844;39;20790;-56
2021/08/17 04:53:33;;;;;;;15.40;14.40;;;24.20;91.60;;;;;;2603077;39;20754;-56
2021/08/17 04:56:02;;;;;;;15.70;14.80;;;24.20;91.60;;;;;;2601889;54;20402;-56
2021/08/17 04:58:32;;;;;;;14.90;14.00;;;24.20;91.70;;;;;;2601345;54;20411;-56
2021/08/17 05:01:03;;;;;;;14.33;13.50;;;24.20;91.70;;;;;;2600546;54;20458;-56
2021/08/17 05:03:32;;;;;;;14.33;13.43;;;24.20;91.70;;;;;;2599690;54;20375;-56
2021/08/17 05:06:01;;;;;;;14.43;13.63;;;24.20;91.70;;;;;;2599893;54;20427;-56
2021/08/17 05:08:30;;;;;;;15.00;14.20;;;24.20;91.70;;;;;;2597319;54;20441;-55
2021/08/17 05:10:59;;;;;;;14.40;13.40;;;24.20;91.60;;;;;;2596655;47;20429;-56
2021/08/17 05:13:29;;;;;;;15.30;14.30;;;24.20;91.60;;;;;;2594043;54;20445;-56
2021/08/17 05:15:58;;;;;;;15.60;14.30;;;24.20;91.50;;;;;;2596610;54;20395;-57
2021/08/17 05:18:32;;;;;;;15.63;14.73;;;24.20;91.40;;;;;;2595981;54;20417;-57
2021/08/17 05:21:02;;;;;;;15.30;14.13;;;24.20;91.60;;;;;;2595973;39;21143;-56
2021/08/17 05:23:31;;;;;;;15.53;14.40;;;24.20;91.90;;;;;;2595896;54;20510;-56
2021/08/17 05:26:00;;;;;;;14.73;13.93;;;24.20;92.00;;;;;;2593155;54;20415;-57
2021/08/17 05:28:29;;;;;;;14.03;13.33;;;24.30;92.00;;;;;;2595151;51;20433;-57
2021/08/17 05:30:58;;;;;;;14.40;13.50;;;24.30;91.90;;;;;;2594857;54;20430;-57
2021/08/17 05:33:30;;;;;;;14.20;13.40;;;24.30;91.50;;;;;;2593667;39;21160;-55
2021/08/17 05:36:00;;;;;;;14.27;13.57;;;24.30;91.10;;;;;;2594112;54;20390;-57
2021/08/17 05:38:29;;;;;;;14.40;13.50;;;24.30;90.90;;;;;;2590252;54;20501;-54
2021/08/17 05:40:58;;;;;;;14.87;14.00;;;24.30;90.90;;;;;;2591553;54;20430;-57
2021/08/17 05:43:27;;;;;;;14.10;13.30;;;24.30;90.50;;;;;;2591159;54;20521;-56
2021/08/17 05:45:57;;;;;;;14.70;14.00;;;24.30;90.20;;;;;;2590186;54;20430;-57
2021/08/17 05:48:26;;;;;;;15.20;14.20;;;24.30;90.10;;;;;;2584772;54;20417;-56
2021/08/17 05:50:58;;;;;;;14.93;14.13;;;24.30;90.20;;;;;;2586150;54;20449;-56
2021/08/17 05:53:27;;;;;;;15.17;14.37;;;24.30;90.40;;;;;;2583725;54;20703;-57
2021/08/17 05:55:56;;;;;;;16.03;14.23;;;24.30;90.60;;;;;;2592039;54;21220;-56
2021/08/17 05:58:25;;;;;;;15.13;14.33;;;24.30;90.70;;;;;;2589653;54;20530;-57
2021/08/17 06:00:54;;;;;;;13.73;12.90;;;24.30;90.80;;;;;;2588497;54;20434;-58
2021/08/17 06:03:23;;;;;;;14.00;13.10;;;24.20;88.20;;;;;;2586771;54;20418;-58
2021/08/17 06:05:57;;;;;;;15.70;14.27;;;24.10;87.60;;;;;;2585807;39;20698;-58
2021/08/17 06:08:30;;;;;;;13.80;13.00;;;23.90;87.20;;;;;;2584650;54;20406;-56
2021/08/17 06:10:59;;;;;;;13.93;13.23;;;23.80;87.40;;;;;;2582441;54;21245;-56
2021/08/17 06:13:28;;;;;;;15.13;14.23;;;23.80;88.00;;;;;;2586447;54;20457;-57
2021/08/17 06:15:58;;;;;;;14.20;13.37;;;23.70;88.10;;;;;;2583789;54;20387;-57
2021/08/17 06:18:27;;;;;;;13.87;13.07;;;23.70;88.20;;;;;;2577499;54;20411;-58
2021/08/17 06:20:56;;;;;;;14.33;13.33;;;23.60;88.20;;;;;;2581529;54;21038;-57
2021/08/17 06:23:28;;;;;;;14.27;13.33;;;23.60;88.30;;;;;;2583405;54;20433;-58
2021/08/17 06:25:57;;;;;;;13.70;12.90;;;23.60;88.30;;;;;;2584229;39;20450;-58
2021/08/17 06:28:27;;;;;;;14.37;13.20;;;23.50;88.40;;;;;;2581371;54;20418;-58
2021/08/17 06:30:57;;;;;;;13.83;13.13;;;23.50;88.50;;;;;;2580981;54;20383;-57
2021/08/17 06:33:26;;;;;;;14.90;13.50;;;23.50;89.00;;;;;;2580403;54;21344;-57
2021/08/17 06:35:55;;;;;;;14.73;13.83;;;23.50;89.10;;;;;;2577526;39;20796;-58
2021/08/17 06:38:24;;;;;;;13.70;12.90;;;23.50;89.20;;;;;;2576396;54;20454;-58
2021/08/17 06:40:56;;;;;;;12.80;12.10;;;23.50;88.60;;;;;;2576501;39;20758;-57
2021/08/17 06:43:29;;;;;;;12.17;11.37;;;23.50;88.20;;;;;;2580454;54;20422;-57
2021/08/17 06:45:58;;;;;;;13.13;12.00;;;23.50;88.10;;;;;;2576804;47;20468;-58
2021/08/17 06:48:27;;;;;;;14.00;13.10;;;23.50;87.80;;;;;;2577000;54;20402;-58
2021/08/17 06:50:57;;;;;;;13.37;12.47;;;23.50;87.30;;;;;;2579009;39;20811;-58
2021/08/17 06:53:26;;;;;;;13.80;12.90;;;23.50;87.20;;;;;;2577207;39;20632;-56
2021/08/17 06:55:58;;;;;;;13.37;12.63;;;23.50;87.00;;;;;;2571788;54;20834;-55
2021/08/17 06:58:27;;;;;;;13.10;12.30;;;23.40;87.40;;;;;;2567575;54;21146;-57
2021/08/17 07:00:57;;;;;;;13.90;12.90;;;23.50;88.10;;;;;;2569139;54;20442;-56
2021/08/17 07:03:27;;;;;;;13.23;12.50;;;23.50;88.00;;;;;;2573542;54;21301;-57
2021/08/17 07:05:57;;;;;;;13.33;12.53;;;23.50;87.30;;;;;;2571744;54;20403;-56
2021/08/17 07:08:26;;;;;;;12.57;11.90;;;23.50;86.30;;;;;;2569409;54;20386;-57
2021/08/17 07:10:58;;;;;;;13.73;12.93;;;23.40;85.80;;;;;;2577328;54;20378;-56
2021/08/17 07:13:28;;;;;;;12.57;11.87;;;23.40;86.20;;;;;;2576058;54;20415;-56
2021/08/17 07:15:58;;;;;;;12.47;11.80;;;23.40;86.50;;;;;;2576000;54;20510;-54
2021/08/17 07:18:27;;;;;;;12.87;12.03;;;23.40;86.20;;;;;;2574015;54;20415;-56
2021/08/17 07:20:56;;;;;;;11.83;11.23;;;23.40;86.60;;;;;;2577974;54;20411;-56
2021/08/17 07:23:25;;;;;;;12.90;12.00;;;23.40;87.00;;;;;;2578817;54;20414;-56
2021/08/17 07:25:59;;;;;;;12.07;11.47;;;23.50;87.00;;;;;;2577068;39;21213;-57
2021/08/17 07:28:34;;;;;;;13.00;12.30;;;23.50;86.40;;;;;;2577116;54;20939;-57
2021/08/17 07:31:08;;;;;;;12.70;11.90;;;23.50;85.70;;;;;;2578170;54;20398;-57
2021/08/17 07:33:51;;;;;;;13.40;12.53;;;23.40;86.10;;;;;;2574567;54;20455;-57
2021/08/17 07:36:23;;;;;;;14.23;13.30;;;23.40;86.20;;;;;;2577824;39;20722;-58
2021/08/17 07:38:56;;;;;;;12.50;11.80;;;23.40;86.30;;;;;;2577196;54;20382;-57
2021/08/17 07:41:28;;;;;;;13.10;12.20;;;23.50;86.10;;;;;;2573061;39;21109;-55
2021/08/17 07:44:01;;;;;;;13.20;12.50;;;23.40;85.90;;;;;;2572484;51;20434;-57
2021/08/17 07:46:37;;;;;;;12.63;11.97;;;23.40;85.70;;;;;;2569728;39;20996;-55
2021/08/17 07:49:08;;;;;;;13.43;12.43;;;23.40;85.40;;;;;;2572042;54;20494;-58
2021/08/17 07:51:41;;;;;;;12.50;11.80;;;23.40;85.20;;;;;;2575625;54;21280;-56
2021/08/17 07:54:13;;;;;;;12.30;11.50;;;23.40;84.90;;;;;;2573693;54;20478;-57
2021/08/17 07:56:46;;;;;;;12.63;11.80;;;23.40;85.60;;;;;;2570390;54;20498;-57
2021/08/17 07:59:24;;;;;;;12.87;12.07;;;23.40;85.80;;;;;;2569685;54;20419;-57
2021/08/17 08:01:54;;;;;;;12.30;11.70;;;23.40;85.50;;;;;;2574881;54;20434;-57
2021/08/17 08:04:23;;;;;;;13.00;12.30;;;23.40;85.80;;;;;;2572094;54;20418;-58
2021/08/17 08:06:52;;;;;;;12.90;12.13;;;23.40;85.00;;;;;;2571928;54;20525;-56
2021/08/17 08:09:54;;;;;;;14.50;13.57;;;23.40;84.90;;;;;;2571731;54;20423;-56
2021/08/17 08:13:06;;;;;;;12.63;11.97;;;23.40;84.40;;;;;;2571645;51;20379;-57
2021/08/17 08:15:37;;;;;;;13.63;12.80;;;23.30;84.40;;;;;;2572308;54;20438;-57
2021/08/17 08:18:09;;;;;;;13.33;12.43;;;23.30;84.20;;;;;;2576184;54;20464;-57
2021/08/17 08:20:38;;;;;;;13.23;12.00;;;23.30;84.00;;;;;;2573532;54;20406;-57
2021/08/17 08:23:08;;;;;;;12.77;12.07;;;23.30;83.20;;;;;;2571641;54;20525;-56
2021/08/17 08:25:40;;;;;;;13.90;13.00;;;23.30;82.70;;;;;;2571442;47;20471;-55
2021/08/17 08:28:10;;;;;;;14.00;13.13;;;23.20;82.50;;;;;;2565271;54;20871;-56
2021/08/17 08:30:41;;;;;;;12.80;12.20;;;23.20;82.30;;;;;;2566515;54;20395;-53
2021/08/17 08:33:11;;;;;;;13.97;12.80;;;23.20;81.80;;;;;;2566199;39;20657;-56
2021/08/17 08:35:40;;;;;;;12.57;11.77;;;23.20;81.40;;;;;;2573143;54;20526;-57
2021/08/17 08:38:09;;;;;;;14.00;13.20;;;23.20;81.00;;;;;;2564228;39;20870;-56
2021/08/17 08:40:38;;;;;;;13.30;12.50;;;23.20;81.50;;;;;;2570622;54;21679;-57
2021/08/17 08:43:07;;;;;;;13.23;12.37;;;23.30;82.10;;;;;;2569697;54;20446;-56
2021/08/17 08:45:38;;;;;;;13.80;13.10;;;23.20;81.30;;;;;;2569989;47;20552;-57
2021/08/17 08:48:10;;;;;;;13.60;12.80;;;23.20;81.60;;;;;;2566784;54;20406;-56
2021/08/17 08:50:39;;;;;;;13.33;12.43;;;23.20;81.10;;;;;;2570664;54;20403;-57
2021/08/17 08:53:08;;;;;;;14.33;13.30;;;23.20;81.60;;;;;;2568765;54;20465;-56
2021/08/17 08:55:37;;;;;;;12.63;11.93;;;23.20;82.00;;;;;;2570110;54;20395;-57
2021/08/17 08:58:06;;;;;;;11.43;10.73;;;23.20;82.20;;;;;;2570918;54;20430;-56
2021/08/17 09:00:35;;;;;;;12.70;12.00;;;23.30;82.70;;;;;;2570272;47;20413;-57
2021/08/17 09:03:05;;;;;;;13.50;12.70;;;23.30;82.70;;;;;;2566223;54;20426;-54
2021/08/17 09:05:53;;;;;;;14.27;13.27;;;23.30;81.90;;;;;;2571842;54;20491;-57
2021/08/17 09:08:29;;;;;;;13.83;12.83;;;23.30;82.10;;;;;;2569603;54;20420;-58
2021/08/17 09:11:17;;;;;;;13.50;12.70;;;23.30;81.90;;;;;;2564948;54;20501;-57
2021/08/17 09:13:46;;;;;;;14.17;13.37;;;23.30;81.70;;;;;;2570178;54;20395;-57
2021/08/17 09:16:29;;;;;;;13.13;12.33;;;23.30;81.50;;;;;;2566338;54;20444;-57
2021/08/17 09:18:58;;;;;;;13.00;12.33;;;23.30;81.70;;;;;;2570605;47;21343;-57
2021/08/17 09:21:42;;;;;;;13.37;12.67;;;23.30;81.60;;;;;;2572601;54;20391;-56
2021/08/17 09:24:22;;;;;;;13.33;12.33;;;23.30;81.70;;;;;;2565845;54;21118;-56
2021/08/17 09:26:53;;;;;;;14.30;13.50;;;23.30;82.00;;;;;;2571552;54;20414;-57
2021/08/17 09:29:27;;;;;;;15.67;14.20;;;23.30;80.90;;;;;;2570538;54;20406;-59
2021/08/17 09:31:59;;;;;;;18.83;17.37;;;23.40;81.50;;;;;;2569693;54;20498;-62
2021/08/17 09:34:35;;;;;;;17.60;16.60;;;23.40;85.10;;;;;;2572992;39;21075;-61
2021/08/17 09:37:11;;;;;;;17.50;16.37;;;23.40;92.50;;;;;;2572274;46;20442;-61
2021/08/17 09:39:44;;;;;;;17.50;16.40;;;23.40;92.10;;;;;;2572140;54;20910;-62
2021/08/17 09:42:20;;;;;;;17.63;16.60;;;23.40;90.60;;;;;;2575287;54;20398;-62
2021/08/17 09:45:03;;;;;;;17.37;16.30;;;23.40;87.20;;;;;;2573541;54;20451;-62
2021/08/17 09:47:32;;;;;;;17.37;16.40;;;23.50;86.10;;;;;;2566462;51;20441;-62
2021/08/17 09:50:26;;;;;;;17.13;16.27;;;23.50;85.20;;;;;;2569897;39;20842;-62
2021/08/17 09:53:11;;;;;;;17.90;16.73;;;23.50;84.20;;;;;;2568570;39;21155;-61
2021/08/17 09:55:47;;;;;;;18.03;16.87;;;23.50;83.20;;;;;;2571890;54;20403;-61
2021/08/17 09:58:27;;;;;;;17.07;15.90;;;23.50;82.70;;;;;;2571570;54;20438;-61
2021/08/17 10:00:58;;;;;;;17.60;16.50;;;23.60;82.40;;;;;;2563780;54;20371;-61
2021/08/17 10:03:29;;;;;;;16.93;16.03;;;23.50;82.60;;;;;;2563958;54;21174;-62
2021/08/17 10:05:58;;;;;;;17.47;16.10;;;23.50;80.20;;;;;;2571843;54;21480;-61
2021/08/17 10:08:32;;;;;;;17.47;16.57;;;23.50;80.00;;;;;;2567595;54;20848;-61
2021/08/17 10:11:03;;;;;;;16.60;15.77;;;23.40;80.40;;;;;;2574255;54;20402;-61
2021/08/17 10:13:32;;;;;;;16.50;15.70;;;23.30;79.70;;;;;;2576024;54;20411;-61
2021/08/17 10:16:03;;;;;;;16.67;15.80;;;23.20;76.40;;;;;;2577111;54;20469;-61
2021/08/17 10:18:34;;;;;;;16.73;15.90;;;23.00;76.10;;;;;;2580251;54;20399;-61
2021/08/17 10:21:04;;;;;;;17.00;16.00;;;22.90;75.80;;;;;;2571940;54;20490;-61
2021/08/17 10:23:36;;;;;;;16.97;16.10;;;22.90;76.00;;;;;;2568274;54;20422;-61
2021/08/17 10:26:06;;;;;;;16.57;15.67;;;22.80;75.90;;;;;;2574539;54;21785;-62
2021/08/17 10:28:36;;;;;;;17.03;16.03;;;22.70;75.90;;;;;;2567328;47;20966;-61
2021/08/17 10:31:24;;;;;;;17.03;16.13;;;22.70;76.20;;;;;;2567997;54;20429;-61
2021/08/17 10:33:55;;;;;;;16.73;15.93;;;22.60;76.50;;;;;;2573187;54;20391;-61
2021/08/17 10:36:36;;;;;;;17.53;16.37;;;22.70;76.60;;;;;;2578483;54;20418;-61
2021/08/17 10:39:29;;;;;;;19.03;16.50;;;22.80;76.00;;;;;;2576604;39;20952;-61
2021/08/17 10:41:58;;;;;;;17.83;16.73;;;22.80;75.10;;;;;;2575787;54;20387;-61
2021/08/17 10:44:34;;;;;;;16.57;15.73;;;22.80;75.00;;;;;;2569738;54;20395;-61
2021/08/17 10:47:10;;;;;;;17.70;16.70;;;22.80;74.70;;;;;;2576692;54;20448;-61
2021/08/17 10:49:50;;;;;;;16.03;15.23;;;22.80;75.10;;;;;;2575669;54;20394;-61
2021/08/17 10:52:42;;;;;;;16.90;15.97;;;22.70;74.90;;;;;;2575021;54;20548;-61
2021/08/17 10:55:41;;;;;;;18.37;16.73;;;22.70;75.40;;;;;;2576364;54;20395;-61
2021/08/17 10:58:12;;;;;;;17.07;16.17;;;22.70;76.40;;;;;;2575745;54;20371;-61
2021/08/17 11:00:59;;;;;;;17.20;16.13;;;22.50;73.20;;;;;;2567516;47;20406;-62
2021/08/17 11:03:50;;;;;;;16.10;15.20;;;22.40;74.40;;;;;;2577833;54;20433;-61
2021/08/17 11:06:52;;;;;;;16.97;16.00;;;22.20;75.90;;;;;;2577023;31;20829;-61
2021/08/17 11:09:25;;;;;;;17.07;16.17;;;22.10;75.80;;;;;;2572237;54;20533;-60
2021/08/17 11:12:01;;;;;;;17.90;16.80;;;22.20;76.30;;;;;;2578237;47;20553;-61
2021/08/17 11:14:33;;;;;;;17.07;16.03;;;22.20;76.90;;;;;;2577374;54;20425;-62
2021/08/17 11:17:03;;;;;;;17.03;16.13;;;22.20;76.70;;;;;;2576803;54;20418;-62
2021/08/17 11:19:35;;;;;;;17.23;16.00;;;22.30;76.90;;;;;;2578600;54;20443;-62
2021/08/17 11:22:07;;;;;;;15.87;15.07;;;22.40;76.40;;;;;;2582134;54;20443;-62
2021/08/17 11:24:37;;;;;;;16.47;15.67;;;22.50;76.40;;;;;;2582265;54;20411;-62
2021/08/17 11:27:12;;;;;;;18.03;17.10;;;22.50;75.40;;;;;;2575145;54;20836;-62
2021/08/17 11:29:46;;;;;;;17.87;16.67;;;22.50;75.70;;;;;;2572363;54;21101;-60
2021/08/17 11:32:26;;;;;;;17.00;16.10;;;22.60;76.50;;;;;;2575101;54;20382;-61
2021/08/17 11:34:55;;;;;;;17.97;16.87;;;22.70;76.90;;;;;;2577636;54;20457;-60
2021/08/17 11:37:25;;;;;;;18.10;16.80;;;22.90;77.40;;;;;;2574157;54;20402;-60
2021/08/17 11:39:59;;;;;;;17.63;16.73;;;23.00;77.90;;;;;;2575335;47;20405;-59
2021/08/17 11:42:33;;;;;;;17.60;16.70;;;23.10;78.60;;;;;;2579379;54;20441;-61
2021/08/17 11:45:05;;;;;;;19.00;17.77;;;23.20;79.10;;;;;;2575757;39;21087;-60
2021/08/17 11:47:34;;;;;;;18.37;17.37;;;23.30;79.60;;;;;;2579074;54;20407;-61
2021/08/17 11:50:07;;;;;;;18.63;17.50;;;23.30;79.80;;;;;;2578806;54;20399;-60
2021/08/17 11:52:38;;;;;;;18.10;17.00;;;23.40;79.90;;;;;;2575420;54;21644;-61
2021/08/17 11:55:10;;;;;;;18.57;17.50;;;23.40;80.10;;;;;;2577421;54;20537;-60
2021/08/17 11:57:47;;;;;;;18.80;17.60;;;23.50;80.30;;;;;;2578605;54;20429;-60
2021/08/17 12:00:18;;;;;;;18.50;17.20;;;23.50;80.30;;;;;;2576212;54;20403;-60
2021/08/17 12:02:48;;;;;;;17.90;16.90;;;23.50;80.50;;;;;;2570853;54;20419;-62
2021/08/17 12:05:19;;;;;;;17.57;16.47;;;23.50;80.30;;;;;;2573057;54;20399;-61
2021/08/17 12:07:51;;;;;;;17.67;16.73;;;23.60;80.70;;;;;;2577741;31;20899;-61
2021/08/17 12:10:23;;;;;;;17.93;17.03;;;23.60;80.40;;;;;;2574374;54;20418;-62
2021/08/17 12:13:01;;;;;;;17.27;16.40;;;23.60;80.60;;;;;;2574163;54;20414;-62
2021/08/17 12:15:32;;;;;;;17.70;16.80;;;23.60;80.30;;;;;;2575314;54;20529;-62
2021/08/17 12:18:05;;;;;;;18.80;17.50;;;23.60;80.20;;;;;;2573604;54;20403;-61
2021/08/17 12:20:35;;;;;;;18.67;17.67;;;23.60;80.00;;;;;;2574427;54;20441;-62
2021/08/17 12:23:17;;;;;;;17.47;16.47;;;23.60;80.20;;;;;;2574258;54;20430;-62
2021/08/17 12:25:47;;;;;;;19.53;18.23;;;23.60;80.20;;;;;;2576412;54;21700;-62
2021/08/17 12:28:34;;;;;;;17.80;16.87;;;23.70;80.00;;;;;;2578721;47;20542;-62
2021/08/17 12:31:15;;;;;;;18.93;17.63;;;23.70;80.00;;;;;;2574822;39;20658;-61
2021/08/17 12:33:50;;;;;;;19.27;18.07;;;23.70;80.30;;;;;;2567120;54;20882;-61
2021/08/17 12:36:20;;;;;;;19.13;17.83;;;23.70;80.50;;;;;;2570016;47;21063;-62
2021/08/17 12:38:50;;;;;;;18.90;17.60;;;23.70;80.60;;;;;;2569874;54;20448;-61
2021/08/17 12:41:33;;;;;;;19.63;18.00;;;23.70;80.70;;;;;;2573830;54;20953;-61
2021/08/17 12:44:16;;;;;;;19.00;17.53;;;23.80;81.00;;;;;;2576499;54;20395;-61
2021/08/17 12:47:02;;;;;;;19.30;18.00;;;23.70;81.00;;;;;;2577835;54;21182;-61
2021/08/17 12:49:40;;;;;;;17.67;16.57;;;23.80;81.20;;;;;;2575038;54;20565;-62
2021/08/17 12:52:29;;;;;;;17.43;16.13;;;23.80;81.30;;;;;;2570015;54;20553;-61